aviador You're here:

KBJJ Decoded Metar

WOOSTER in OH, USA
Report Time2018-07-22 23:56:00
UTC Time2018-07-23 00:23:55
Flight Rules mvfr MVFR
Wind360° at 10 kt
W.Decomp.*RWY 28: 0.5 kt HW 10.0 kt RCW
Visibility9999 m
Phenomena:N/A
Clouds:Overcast 012 Hf
Expected CloudBase > 1,200 ft AGL from Temp-Dew spread
Ceiling1,200 ft
Temp20°C (ISA +7)
Dew Point17°C (83% RH)
AAT18.8°C
QNH1010 hPa
Density Alt2,333 ft
Elevation1,125 ft
Report Wrong Elevation
Raw Report
KBJJ 222356Z AUTO 36010KT 10SM OVC012 20/17 A2983 RMK AO2 SLP097
T02000172 10244 20200 53014 $=

Extra information for KBJJ:More info

Metar Taf Metar & Taf Last 4 Metars F.Rules Stats Wind Profile Meteogram Temp Stats Airport Information Weather charts Add Link Nearby VenuesMetar ALERT Operation Metar Decoded Social comments

AIRNAV info for KBJJ